»·PEaware :: N5996K KSEE-KSAN

N5996K :: KSEE-KSAN

FLIGHT INFORMATION

Flight Status: Arrived
Operator: Privately registered:
United States
More flights under this callsign
Pilot: Scott G. (20709)
Aircraft: CESSNA 182 SKYLANE
(C182)
More flights by this aircraft type
Origin: KSEE Gillespie
United States
Destination: KSAN San Diego Intl-Lindbergh
United States
More flights between these airports :: More routes between these airports
Route: +
File this flight plan on PilotEdge
Remarks:
Altitude:
(Current/Filed)
0ft
Speed:
(Current/Filed)
0kts
Departed: 26-Jul-20 11:59 AM
Arrived: 26-Jul-20 12:53 PM
Distance/Time
Traveled:
12nm/0:54
Distance/Time
To Go:
Arrived

Flight Plot

Page will automatically refresh every two minutes.


Map Options




Map Legend


Flown Route
Filed Route
Departure Airport
Arrival Airport
Navaid (VOR, NDB)
Fix

Horizontal Profiles

Position Reports

Time Latitude Longitude Heading Altitude Ground
Speed
26-Jul-20 11:56 33.976967 -117.630598 193 640ft 0kts
26-Jul-20 11:57 33.975929 -117.631021 240 638ft 7kts
26-Jul-20 11:58 33.976164 -117.651112 274 1354ft 48kts
26-Jul-20 11:59 33.976858 -117.673762 271 2045ft 92kts
26-Jul-20 12:00 33.977974 -117.711891 271 2677ft 127kts
26-Jul-20 12:02 33.959767 -117.735752 143 3277ft 129kts
26-Jul-20 12:03 33.934735 -117.705119 133 3880ft 128kts
26-Jul-20 12:04 33.910123 -117.673936 133 4481ft 129kts
26-Jul-20 12:05 33.885252 -117.642432 133 5084ft 130kts
26-Jul-20 12:06 33.860256 -117.610773 133 5684ft 131kts
26-Jul-20 12:07 33.830933 -117.584665 153 6287ft 132kts
26-Jul-20 12:08 33.794558 -117.567597 161 6492ft 152kts
26-Jul-20 12:09 33.752304 -117.577851 199 6500ft 159kts
26-Jul-20 12:10 33.711558 -117.595500 199 6499ft 151kts
26-Jul-20 12:11 33.677164 -117.579577 133 6482ft 150kts
26-Jul-20 12:12 33.648575 -117.543433 133 6481ft 147kts
26-Jul-20 12:13 33.618494 -117.510772 149 6481ft 146kts
26-Jul-20 12:14 33.581166 -117.491365 160 6481ft 146kts
26-Jul-20 12:14 33.549052 -117.478813 162 6481ft 146kts
26-Jul-20 12:16 33.503669 -117.462289 162 6481ft 146kts
26-Jul-20 12:17 33.464828 -117.448393 162 6481ft 146kts
26-Jul-20 12:17 33.432390 -117.436825 163 6481ft 146kts
26-Jul-20 12:18 33.393516 -117.422996 163 6481ft 146kts
26-Jul-20 12:20 33.348098 -117.406851 163 6480ft 146kts
26-Jul-20 12:20 33.314035 -117.394745 163 6140ft 160kts
26-Jul-20 12:21 33.273845 -117.380445 163 5630ft 143kts
26-Jul-20 12:23 33.229218 -117.364601 163 5046ft 143kts
26-Jul-20 12:23 33.197472 -117.353333 163 4629ft 142kts
26-Jul-20 12:24 33.161219 -117.340447 163 4461ft 125kts
26-Jul-20 12:25 33.128362 -117.328814 163 4464ft 127kts
26-Jul-20 12:26 33.092669 -117.316195 163 4464ft 139kts
26-Jul-20 12:27 33.052241 -117.301905 163 3793ft 152kts
26-Jul-20 12:28 33.013119 -117.288075 163 3088ft 142kts
26-Jul-20 12:29 32.975711 -117.274885 163 2963ft 140kts
26-Jul-20 12:30 32.939150 -117.262000 163 3319ft 135kts
26-Jul-20 12:31 32.903947 -117.249594 163 3460ft 127kts
26-Jul-20 12:32 32.872703 -117.239572 165 3445ft 108kts
26-Jul-20 12:33 32.843379 -117.231311 167 2894ft 128kts
26-Jul-20 12:34 32.810148 -117.221607 164 2195ft 119kts
26-Jul-20 12:35 32.796166 -117.195429 98 2349ft 105kts
26-Jul-20 12:36 32.793454 -117.159239 93 2364ft 130kts
26-Jul-20 12:37 32.791241 -117.116678 93 2363ft 134kts
26-Jul-20 12:38 32.786652 -117.072651 100 2363ft 134kts
26-Jul-20 12:39 32.759934 -117.049651 187 2362ft 134kts
26-Jul-20 12:40 32.727462 -117.069440 223 2399ft 135kts
26-Jul-20 12:41 32.706187 -117.105769 242 2354ft 137kts
26-Jul-20 12:42 32.700466 -117.149857 276 2286ft 140kts
26-Jul-20 12:43 32.716345 -117.183714 43 2478ft 124kts
26-Jul-20 12:44 32.736465 -117.158169 339 2609ft 125kts
26-Jul-20 12:45 32.765913 -117.184676 312 2162ft 133kts
26-Jul-20 12:46 32.782603 -117.196932 103 1923ft 117kts
26-Jul-20 12:47 32.771192 -117.164700 127 1845ft 102kts
26-Jul-20 12:48 32.753604 -117.145285 145 1401ft 86kts
26-Jul-20 12:49 32.732694 -117.139557 195 1152ft 79kts
26-Jul-20 12:50 32.726641 -117.161036 287 508ft 72kts
26-Jul-20 12:51 32.731865 -117.182930 287 23ft 55kts
26-Jul-20 12:52 32.734566 -117.187406 37 23ft 5kts
26-Jul-20 12:53 32.734997 -117.187512 201 23ft 2kts
26-Jul-20 12:54 32.734825 -117.187581 195 23ft 0kts
26-Jul-20 12:55 32.734825 -117.187581 195 23ft 0kts

Navigation Log

Ident Type
Flight plan parsing failed, navigation log unavailable